createdAt,value
2018-04-17T00:03:06.548Z,31.97
2018-04-17T00:06:16.988Z,30.90
2018-04-17T00:09:27.957Z,24.10
2018-04-17T00:12:37.283Z,27.60
2018-04-17T00:15:46.738Z,23.47
2018-04-17T00:18:56.473Z,29.23
2018-04-17T00:22:06.569Z,32.47
2018-04-17T00:25:16.849Z,28.33
2018-04-17T00:28:26.883Z,28.33
2018-04-17T00:31:37.144Z,32.33
2018-04-17T00:34:46.500Z,28.40
2018-04-17T00:37:56.228Z,31.90
2018-04-17T00:41:06.087Z,25.13
2018-04-17T00:44:16.308Z,31.30
2018-04-17T00:47:26.189Z,23.57
2018-04-17T00:50:35.611Z,24.43
2018-04-17T00:53:52.819Z,27.30
2018-04-17T00:57:02.193Z,39.80
2018-04-17T01:00:11.527Z,48.23
2018-04-17T01:03:21.243Z,43.40
2018-04-17T01:06:31.757Z,41.17
2018-04-17T01:09:41.227Z,45.23
2018-04-17T01:12:51.110Z,26.50
2018-04-17T01:16:00.523Z,48.80
2018-04-17T01:19:10.164Z,39.63
2018-04-17T01:22:19.459Z,35.83
2018-04-17T01:25:28.937Z,43.97
2018-04-17T01:28:39.023Z,39.53
2018-04-17T01:31:48.530Z,37.37
2018-04-17T01:34:58.713Z,28.50
2018-04-17T01:38:08.221Z,29.53
2018-04-17T01:41:17.931Z,36.67
2018-04-17T01:44:28.167Z,33.40
2018-04-17T01:47:37.915Z,40.53
2018-04-17T01:50:48.099Z,34.27
2018-04-17T01:53:58.324Z,39.23
2018-04-17T01:57:07.976Z,44.10
2018-04-17T02:00:17.878Z,37.33
2018-04-17T02:03:28.814Z,30.17
2018-04-17T02:06:39.115Z,45.17
2018-04-17T02:09:48.520Z,41.07
2018-04-17T02:12:57.916Z,60.10
2018-04-17T02:16:07.304Z,51.00
2018-04-17T02:19:17.813Z,39.30
2018-04-17T02:22:27.591Z,37.53
2018-04-17T02:25:37.627Z,36.43
2018-04-17T02:28:47.074Z,44.30
2018-04-17T02:31:56.975Z,42.23
2018-04-17T02:35:07.975Z,34.13
2018-04-17T02:38:17.286Z,45.87
2018-04-17T02:41:26.747Z,35.37
2018-04-17T02:44:36.156Z,28.67
2018-04-17T02:47:46.782Z,45.03
2018-04-17T02:50:57.127Z,31.37
2018-04-17T02:54:06.564Z,47.57
2018-04-17T02:57:17.288Z,46.20
2018-04-17T03:00:26.974Z,54.50
2018-04-17T03:03:36.518Z,44.47
2018-04-17T03:06:46.107Z,45.63
2018-04-17T03:09:55.619Z,48.43
2018-04-17T03:13:05.899Z,64.13
2018-04-17T03:16:15.756Z,67.03
2018-04-17T03:19:25.964Z,49.63
2018-04-17T03:22:35.801Z,58.30
2018-04-17T03:25:46.055Z,55.23
2018-04-17T03:28:55.499Z,55.43
2018-04-17T03:32:05.639Z,66.30
2018-04-17T03:35:14.971Z,70.60
2018-04-17T03:38:24.896Z,63.87
2018-04-17T03:41:34.310Z,69.90
2018-04-17T03:44:44.179Z,61.90
2018-04-17T03:47:54.380Z,52.37
2018-04-17T03:51:04.273Z,63.37
2018-04-17T03:54:15.063Z,64.83
2018-04-17T03:57:25.763Z,45.27
2018-04-17T04:00:35.867Z,50.43
2018-04-17T04:03:45.336Z,56.60
2018-04-17T04:06:55.516Z,56.67
2018-04-17T04:10:05.811Z,81.63
2018-04-17T04:13:15.999Z,71.50
2018-04-17T04:16:44.004Z,62.70
2018-04-17T04:20:12.572Z,67.93
2018-04-17T04:23:40.680Z,48.03
2018-04-17T04:26:54.750Z,57.43
2018-04-17T04:30:07.368Z,72.43
2018-04-17T04:33:18.077Z,69.40
2018-04-17T04:36:28.779Z,65.73
2018-04-17T04:39:38.532Z,52.87
2018-04-17T04:42:48.747Z,41.00
2018-04-17T04:46:00.407Z,47.90
2018-04-17T04:49:10.015Z,69.13
2018-04-17T04:52:20.456Z,50.30
2018-04-17T04:55:29.791Z,72.80
2018-04-17T04:58:39.241Z,90.80
2018-04-17T05:01:49.096Z,69.00
2018-04-17T05:04:58.926Z,46.30
2018-04-17T05:08:08.655Z,57.63
2018-04-17T05:11:18.108Z,53.57
2018-04-17T05:14:28.784Z,44.27
2018-04-17T05:17:38.728Z,58.87
2018-04-17T05:20:48.207Z,58.20
2018-04-17T05:23:58.156Z,41.13
2018-04-17T05:27:07.628Z,58.30
2018-04-17T05:30:17.195Z,55.70
2018-04-17T05:33:27.291Z,52.07
2018-04-17T05:36:36.791Z,59.53
2018-04-17T05:39:48.060Z,60.50
2018-04-17T05:42:57.992Z,58.77
2018-04-17T05:46:08.111Z,49.73
2018-04-17T05:49:17.460Z,55.60
2018-04-17T05:52:26.885Z,57.97
2018-04-17T05:55:36.342Z,47.33
2018-04-17T05:58:46.441Z,51.07
2018-04-17T06:01:56.591Z,48.67
2018-04-17T06:05:05.943Z,45.40
2018-04-17T06:08:15.880Z,47.40
2018-04-17T06:11:26.091Z,47.90
2018-04-17T06:14:35.425Z,42.90
2018-04-17T06:17:45.791Z,40.37
2018-04-17T06:20:56.644Z,49.23
2018-04-17T06:24:06.025Z,34.30
2018-04-17T06:27:15.506Z,38.40
2018-04-17T06:30:25.735Z,33.33
2018-04-17T06:33:35.495Z,35.33
2018-04-17T06:36:45.775Z,44.60
2018-04-17T06:39:56.011Z,35.23
2018-04-17T06:43:05.914Z,32.63
2018-04-17T06:46:15.303Z,38.97
2018-04-17T06:49:26.120Z,37.73
2018-04-17T06:52:36.266Z,35.33
2018-04-17T06:55:45.706Z,44.73
2018-04-17T06:58:55.950Z,46.50
2018-04-17T07:02:05.905Z,37.10
2018-04-17T07:05:15.259Z,38.90
2018-04-17T07:08:25.099Z,43.63
2018-04-17T07:11:34.619Z,44.10
2018-04-17T07:14:43.989Z,43.67
2018-04-17T07:17:53.445Z,35.37
2018-04-17T07:21:03.336Z,39.40
2018-04-17T07:24:13.106Z,41.27
2018-04-17T07:27:22.588Z,37.90
2018-04-17T07:30:32.484Z,37.40
2018-04-17T07:33:42.800Z,41.47
2018-04-17T07:36:52.332Z,39.87
2018-04-17T07:40:01.928Z,37.17
2018-04-17T07:43:11.161Z,37.50
2018-04-17T07:46:20.903Z,41.17
2018-04-17T07:49:30.348Z,32.47
2018-04-17T07:52:39.743Z,41.40
2018-04-17T07:55:49.110Z,38.90
2018-04-17T07:58:59.132Z,37.57
2018-04-17T08:02:09.787Z,37.03
2018-04-17T08:05:19.620Z,34.80
2018-04-17T08:08:29.906Z,33.43
2018-04-17T08:11:39.986Z,36.37
2018-04-17T08:14:50.536Z,31.67
2018-04-17T08:18:00.299Z,35.77
2018-04-17T08:21:10.599Z,29.93
2018-04-17T08:24:20.675Z,32.10
2018-04-17T08:27:30.827Z,27.60
2018-04-17T08:30:40.175Z,30.30
2018-04-17T08:33:49.644Z,31.77
2018-04-17T08:36:59.773Z,26.10
2018-04-17T08:40:10.369Z,26.37
2018-04-17T08:43:19.600Z,24.93
2018-04-17T08:46:29.825Z,24.33
2018-04-17T08:49:39.303Z,26.53
2018-04-17T08:52:48.779Z,26.33
2018-04-17T08:55:58.200Z,23.37
2018-04-17T08:59:07.726Z,22.50
2018-04-17T09:02:17.735Z,22.07
2018-04-17T09:05:27.939Z,22.17
2018-04-17T09:08:37.323Z,20.50
2018-04-17T09:11:47.769Z,20.25
2018-04-17T09:14:57.031Z,21.70
2018-04-17T09:18:06.987Z,25.05
2018-04-17T09:21:17.089Z,21.73
2018-04-17T09:24:27.304Z,23.17
2018-04-17T09:27:36.676Z,16.23
2018-04-17T09:30:46.902Z,21.10
2018-04-17T09:33:57.581Z,24.58
2018-04-17T09:37:07.855Z,18.73
2018-04-17T09:40:18.171Z,20.67
2018-04-17T09:43:27.505Z,24.15
2018-04-17T09:46:37.196Z,25.27
2018-04-17T09:49:46.865Z,24.97
2018-04-17T09:52:56.387Z,17.75
2018-04-17T09:56:06.437Z,19.48
2018-04-17T09:59:16.343Z,18.07
2018-04-17T10:02:25.736Z,18.60
2018-04-17T10:05:35.291Z,23.27
2018-04-17T10:08:44.745Z,19.08
2018-04-17T10:11:54.717Z,14.38
2018-04-17T10:15:04.154Z,17.10
2018-04-17T10:18:13.595Z,15.93
2018-04-17T10:21:22.773Z,16.80
2018-04-17T10:24:33.483Z,16.75
2018-04-17T10:27:42.791Z,13.90
2018-04-17T10:30:52.101Z,16.05
2018-04-17T10:34:01.441Z,13.52
2018-04-17T10:37:11.418Z,17.08
2018-04-17T10:40:21.551Z,18.65
2018-04-17T10:43:31.368Z,14.55
2018-04-17T10:46:40.885Z,17.95
2018-04-17T10:49:51.211Z,16.58
2018-04-17T10:53:00.611Z,18.20
2018-04-17T10:56:09.929Z,17.83
2018-04-17T10:59:20.132Z,17.42
2018-04-17T11:02:30.457Z,21.17
2018-04-17T11:05:40.119Z,18.02
2018-04-17T11:08:50.336Z,21.70
2018-04-17T11:12:00.463Z,16.05
2018-04-17T11:15:09.802Z,17.63
2018-04-17T11:18:19.239Z,19.48
2018-04-17T11:21:28.751Z,19.35
2018-04-17T11:24:39.641Z,21.08
2018-04-17T11:27:49.003Z,17.12
2018-04-17T11:30:58.326Z,20.80
2018-04-17T11:34:08.588Z,20.23
2018-04-17T11:37:18.085Z,18.02
2018-04-17T11:40:27.627Z,16.92
2018-04-17T11:43:37.848Z,18.67
2018-04-17T11:46:47.243Z,19.58
2018-04-17T11:49:57.398Z,19.35
2018-04-17T11:53:06.863Z,18.90
2018-04-17T11:56:17.206Z,22.13
2018-04-17T11:59:26.892Z,16.75
2018-04-17T12:02:36.221Z,19.45
2018-04-17T12:05:45.559Z,17.62
2018-04-17T12:08:54.902Z,17.67
2018-04-17T12:12:05.163Z,18.80
2018-04-17T12:15:14.484Z,18.42
2018-04-17T12:18:24.572Z,16.37
2018-04-17T12:21:34.609Z,17.70
2018-04-17T12:24:43.957Z,20.42
2018-04-17T12:27:53.424Z,12.98
2018-04-17T12:31:02.763Z,19.17
2018-04-17T12:34:12.165Z,14.52
2018-04-17T12:37:21.576Z,15.98
2018-04-17T12:40:30.879Z,20.08
2018-04-17T12:43:40.371Z,15.93
2018-04-17T12:46:49.731Z,18.05
2018-04-17T12:49:59.247Z,16.55
2018-04-17T12:53:09.328Z,19.42
2018-04-17T12:56:18.700Z,17.77
2018-04-17T12:59:28.169Z,18.52
2018-04-17T13:02:37.611Z,15.55
2018-04-17T13:05:47.040Z,16.55
2018-04-17T13:08:56.367Z,17.33
2018-04-17T13:12:06.780Z,16.73
2018-04-17T13:15:16.292Z,17.08
2018-04-17T13:18:25.591Z,15.35
2018-04-17T13:21:35.040Z,15.30
2018-04-17T13:24:45.527Z,13.10
2018-04-17T13:27:55.413Z,16.37
2018-04-17T13:31:04.843Z,13.55
2018-04-17T13:34:15.047Z,13.20
2018-04-17T13:37:24.376Z,12.40
2018-04-17T13:40:33.750Z,16.10
2018-04-17T13:43:43.127Z,11.85
2018-04-17T13:46:52.844Z,15.88
2018-04-17T13:50:02.194Z,18.00
2018-04-17T13:53:11.791Z,12.10
2018-04-17T13:56:21.930Z,11.10
2018-04-17T13:59:31.256Z,13.38
2018-04-17T14:02:41.328Z,13.85
2018-04-17T14:05:50.777Z,11.52
2018-04-17T14:09:00.990Z,12.25
2018-04-17T14:12:10.375Z,13.30
2018-04-17T14:15:19.883Z,14.05
2018-04-17T14:18:29.867Z,15.38
2018-04-17T14:21:39.363Z,11.77
2018-04-17T14:24:49.553Z,13.45
2018-04-17T14:27:59.672Z,12.32
2018-04-17T14:31:08.955Z,16.55
2018-04-17T14:34:18.302Z,17.27
2018-04-17T14:37:28.033Z,20.33
2018-04-17T14:40:37.341Z,14.30
2018-04-17T14:43:46.820Z,14.15
2018-04-17T14:46:56.668Z,11.82
2018-04-17T14:50:06.523Z,13.55
2018-04-17T14:53:16.101Z,11.32
2018-04-17T14:56:25.981Z,13.35
2018-04-17T14:59:35.411Z,19.48
2018-04-17T15:02:44.888Z,13.48
2018-04-17T15:05:54.200Z,16.02
2018-04-17T15:09:03.677Z,15.23
2018-04-17T15:12:12.979Z,14.90
2018-04-17T15:15:22.327Z,16.80
2018-04-17T15:18:32.181Z,12.18
2018-04-17T15:21:41.516Z,13.77
2018-04-17T15:24:50.990Z,12.73
2018-04-17T15:28:00.863Z,12.23
2018-04-17T15:31:10.709Z,12.43
2018-04-17T15:34:20.027Z,14.50
2018-04-17T15:37:29.555Z,13.23
2018-04-17T15:40:39.671Z,12.52
2018-04-17T15:43:49.104Z,11.45
2018-04-17T15:46:59.035Z,11.43
2018-04-17T15:50:08.487Z,13.30
2018-04-17T15:53:18.217Z,11.07
2018-04-17T15:56:28.447Z,12.55
2018-04-17T15:59:37.911Z,16.70
2018-04-17T16:02:48.853Z,15.35
2018-04-17T16:05:59.061Z,14.45
2018-04-17T16:09:08.814Z,12.93
2018-04-17T16:12:18.170Z,14.80
2018-04-17T16:15:27.599Z,11.65
2018-04-17T16:18:36.915Z,14.80
2018-04-17T16:21:46.800Z,16.37
2018-04-17T16:24:56.300Z,16.08
2018-04-17T16:28:05.975Z,13.45
2018-04-17T16:31:15.420Z,12.37
2018-04-17T16:34:24.812Z,15.63
2018-04-17T16:37:34.892Z,11.60
2018-04-17T16:40:44.211Z,14.68
2018-04-17T16:43:53.676Z,14.40
2018-04-17T16:47:03.654Z,16.62
2018-04-17T16:50:13.453Z,12.43
2018-04-17T16:53:22.927Z,13.02
2018-04-17T16:56:32.808Z,15.35
2018-04-17T16:59:42.616Z,11.55
2018-04-17T17:02:52.821Z,10.60
2018-04-17T17:06:03.339Z,12.57
2018-04-17T17:09:13.263Z,12.02
2018-04-17T17:12:23.636Z,16.87
2018-04-17T17:15:33.309Z,7.80
2018-04-17T17:18:43.327Z,15.90
2018-04-17T17:21:52.956Z,10.98
2018-04-17T17:25:02.570Z,12.35
2018-04-17T17:28:12.996Z,15.93
2018-04-17T17:31:23.370Z,69.30
2018-04-17T17:34:33.173Z,11.77
2018-04-17T17:37:42.976Z,15.25
2018-04-17T17:40:52.428Z,14.15
2018-04-17T17:44:01.877Z,14.20
2018-04-17T17:47:11.341Z,12.00
2018-04-17T17:50:22.101Z,11.40
2018-04-17T17:53:31.407Z,14.73
2018-04-17T17:56:40.893Z,14.15
2018-04-17T17:59:51.125Z,14.00
2018-04-17T18:03:01.079Z,17.87
2018-04-17T18:06:10.484Z,13.35
2018-04-17T18:09:20.696Z,14.65
2018-04-17T18:12:30.173Z,14.73
2018-04-17T18:15:40.665Z,10.40
2018-04-17T18:18:50.165Z,18.92
2018-04-17T18:22:00.104Z,14.13
2018-04-17T18:25:10.288Z,15.60
2018-04-17T18:28:19.762Z,16.35
2018-04-17T18:31:30.175Z,20.20
2018-04-17T18:34:41.360Z,19.37
2018-04-17T18:37:50.975Z,15.25
2018-04-17T18:41:01.110Z,21.40
2018-04-17T18:44:10.488Z,16.15
2018-04-17T18:47:21.148Z,11.33
2018-04-17T18:50:31.065Z,12.37
2018-04-17T18:53:41.226Z,15.47
2018-04-17T18:56:51.315Z,10.55
2018-04-17T19:00:02.071Z,11.83
2018-04-17T19:03:12.609Z,11.83
2018-04-17T19:06:23.347Z,24.87
2018-04-17T19:09:34.781Z,18.70
2018-04-17T19:12:44.238Z,11.18
2018-04-17T19:15:56.036Z,15.57
2018-04-17T19:19:05.768Z,10.27
2018-04-17T19:22:15.075Z,15.07
2018-04-17T19:25:24.577Z,12.87
2018-04-17T19:28:36.309Z,14.10
2018-04-17T19:31:46.038Z,25.90
2018-04-17T19:35:12.543Z,16.12
2018-04-17T19:38:24.071Z,18.30
2018-04-17T19:41:33.879Z,15.20
2018-04-17T19:44:44.124Z,13.60
2018-04-17T19:47:54.435Z,15.13
2018-04-17T19:51:04.327Z,12.67
2018-04-17T19:54:13.779Z,19.30
2018-04-17T19:57:23.507Z,11.53
2018-04-17T20:00:33.759Z,15.83
2018-04-17T20:03:43.072Z,16.67
2018-04-17T20:06:53.353Z,17.40
2018-04-17T20:10:03.235Z,16.47
2018-04-17T20:13:13.492Z,12.80
2018-04-17T20:16:24.791Z,12.80
2018-04-17T20:19:35.034Z,14.23
2018-04-17T20:22:44.571Z,17.97
2018-04-17T20:25:54.432Z,14.97
2018-04-17T20:29:03.900Z,15.40
2018-04-17T20:32:13.810Z,15.37
2018-04-17T20:35:24.086Z,15.53
2018-04-17T20:38:34.464Z,18.97
2018-04-17T20:41:44.415Z,19.77
2018-04-17T20:44:55.062Z,14.27
2018-04-17T20:48:04.808Z,18.23
2018-04-17T20:51:14.614Z,16.57
2018-04-17T20:54:24.888Z,18.03
2018-04-17T20:57:35.073Z,20.97
2018-04-17T21:00:44.620Z,15.13
2018-04-17T21:03:54.155Z,21.20
2018-04-17T21:07:04.421Z,19.43
2018-04-17T21:10:13.862Z,16.23
2018-04-17T21:13:23.445Z,12.47
2018-04-17T21:16:34.169Z,17.33
2018-04-17T21:19:44.051Z,30.83
2018-04-17T21:22:53.493Z,18.27
2018-04-17T21:26:03.013Z,18.73
2018-04-17T21:29:12.751Z,22.03
2018-04-17T21:32:23.123Z,20.83
2018-04-17T21:35:33.291Z,25.80
2018-04-17T21:38:43.105Z,23.50
2018-04-17T21:41:53.337Z,15.53
2018-04-17T21:45:02.751Z,26.77
2018-04-17T21:48:12.931Z,22.27
2018-04-17T21:51:22.405Z,21.43
2018-04-17T21:54:32.703Z,20.77
2018-04-17T21:57:42.702Z,19.00
2018-04-17T22:00:52.994Z,21.17
2018-04-17T22:04:02.705Z,13.53
2018-04-17T22:07:12.658Z,22.80
2018-04-17T22:10:22.556Z,26.90
2018-04-17T22:13:32.135Z,23.67
2018-04-17T22:16:41.669Z,21.73
2018-04-17T22:19:52.313Z,23.07
2018-04-17T22:23:01.704Z,18.17
2018-04-17T22:26:11.610Z,18.50
2018-04-17T22:29:22.132Z,24.17
2018-04-17T22:32:32.444Z,18.73
2018-04-17T22:35:42.195Z,18.27
2018-04-17T22:38:52.035Z,21.90
2018-04-17T22:42:01.505Z,24.57
2018-04-17T22:45:11.508Z,20.10
2018-04-17T22:48:21.789Z,26.80
2018-04-17T22:51:32.320Z,17.33
2018-04-17T22:54:42.035Z,19.60
2018-04-17T22:57:52.311Z,20.27
2018-04-17T23:01:01.824Z,21.00
2018-04-17T23:04:11.383Z,26.30
2018-04-17T23:07:21.951Z,21.33
2018-04-17T23:10:32.207Z,22.47
2018-04-17T23:13:42.490Z,21.60
2018-04-17T23:16:52.344Z,19.03
2018-04-17T23:20:01.733Z,24.63
2018-04-17T23:23:11.923Z,19.20
2018-04-17T23:26:22.740Z,24.07
2018-04-17T23:29:32.259Z,41.03
2018-04-17T23:32:41.693Z,23.00
2018-04-17T23:35:51.320Z,23.43
2018-04-17T23:39:02.451Z,28.03
2018-04-17T23:42:11.943Z,28.93
2018-04-17T23:45:21.939Z,42.03
2018-04-17T23:48:31.339Z,23.83
2018-04-17T23:51:40.799Z,29.10
2018-04-17T23:54:50.199Z,43.40
2018-04-17T23:57:59.950Z,53.07
